Time,TemperatureF,DewpointF,PressureIn,WindDirection,WindDirectionDegrees,WindSpeedMPH,WindSpeedGustMPH,Humidity,HourlyPrecipIn,Conditions,Clouds,dailyrainin,SoftwareType,DateUTC
2013-01-18 00:00:00,25.9,13.2,29.56,North,0,0.4,1.3,58,0.00,,,0.29,WUHU216HW,2013-01-18 05:00:00,
2013-01-18 00:02:00,25.7,13.0,29.56,North,0,0.4,1.3,58,0.00,,,0.29,WUHU216HW,2013-01-18 05:02:00,
2013-01-18 00:03:00,25.7,13.0,29.57,North,0,0.2,1.3,58,0.00,,,0.00,WUHU216HW,2013-01-18 05:03:00,
2013-01-18 00:08:00,25.7,12.5,29.58,NNE,23,0.9,0.9,57,0.00,,,0.00,WUHU216HW,2013-01-18 05:08:00,
2013-01-18 00:13:00,25.7,11.3,29.58,NNE,23,0.7,5.4,54,0.00,,,0.00,WUHU216HW,2013-01-18 05:13:00,
2013-01-18 00:18:00,25.7,10.9,29.58,NNW,338,2.9,5.4,53,0.00,,,0.00,WUHU216HW,2013-01-18 05:18:00,
2013-01-18 00:23:00,25.6,10.3,29.58,East,90,2.5,4.3,52,0.00,,,0.00,WUHU216HW,2013-01-18 05:23:00,
2013-01-18 00:28:00,25.6,11.2,29.58,North,0,0.2,4.3,54,0.00,,,0.00,WUHU216HW,2013-01-18 05:28:00,
2013-01-18 00:34:00,25.6,11.5,29.56,NNW,338,0.0,2.2,55,0.00,,,0.00,WUHU216HW,2013-01-18 05:34:00,
2013-01-18 00:39:00,25.6,10.7,29.58,NW,315,4.3,4.3,53,0.00,,,0.00,WUHU216HW,2013-01-18 05:39:00,
2013-01-18 00:44:00,25.6,11.2,29.60,NNW,338,0.0,4.3,54,0.00,,,0.00,WUHU216HW,2013-01-18 05:44:00,
2013-01-18 00:49:00,25.6,11.5,29.59,ENE,68,1.8,3.8,55,0.00,,,0.00,WUHU216HW,2013-01-18 05:49:00,
2013-01-18 00:54:00,25.4,10.2,29.57,North,0,3.1,3.1,52,0.00,,,0.00,WUHU216HW,2013-01-18 05:54:00,
2013-01-18 00:59:00,25.4,10.2,29.56,ENE,68,1.8,3.1,52,0.00,,,0.00,WUHU216HW,2013-01-18 05:59:00,
2013-01-18 01:04:00,25.2,10.4,29.56,NE,45,0.9,1.8,53,0.00,,,0.00,WUHU216HW,2013-01-18 06:04:00,
2013-01-18 01:09:00,25.0,9.8,29.57,NNW,338,0.7,5.1,52,0.00,,,0.00,WUHU216HW,2013-01-18 06:09:00,
2013-01-18 01:14:00,25.0,9.8,29.57,North,0,0.2,5.1,52,0.00,,,0.00,WUHU216HW,2013-01-18 06:14:00,
2013-01-18 01:19:00,24.8,9.3,29.56,NNW,338,1.6,4.0,51,0.00,,,0.00,WUHU216HW,2013-01-18 06:19:00,
2013-01-18 01:24:00,24.8,9.6,29.56,NNW,338,0.7,3.4,52,0.00,,,0.00,WUHU216HW,2013-01-18 06:24:00,
2013-01-18 01:29:00,24.8,9.6,29.56,NNE,23,2.5,2.5,52,0.00,,,0.00,WUHU216HW,2013-01-18 06:29:00,
2013-01-18 01:34:00,24.8,10.1,29.55,North,0,1.6,2.7,53,0.00,,,0.00,WUHU216HW,2013-01-18 06:34:00,
2013-01-18 01:39:00,24.7,9.5,29.55,NNW,338,1.8,4.3,52,0.00,,,0.00,WUHU216HW,2013-01-18 06:39:00,
2013-01-18 01:44:00,24.7,9.9,29.58,WNW,293,0.4,4.3,53,0.00,,,0.00,WUHU216HW,2013-01-18 06:44:00,
2013-01-18 01:49:00,24.7,9.5,29.58,NNE,23,1.1,3.6,52,0.00,,,0.00,WUHU216HW,2013-01-18 06:49:00,
2013-01-18 01:54:00,24.7,9.9,29.58,NW,315,1.6,3.6,53,0.00,,,0.00,WUHU216HW,2013-01-18 06:54:00,
2013-01-18 01:59:00,24.5,8.9,29.60,West,270,2.2,4.7,51,0.00,,,0.00,WUHU216HW,2013-01-18 06:59:00,
2013-01-18 02:04:00,24.5,8.5,29.60,NE,45,0.2,4.7,50,0.00,,,0.00,WUHU216HW,2013-01-18 07:04:00,
2013-01-18 02:09:00,24.3,8.4,29.60,West,270,4.0,4.0,50,0.00,,,0.00,WUHU216HW,2013-01-18 07:09:00,
2013-01-18 02:14:00,24.3,8.7,29.58,NNW,338,0.4,4.0,51,0.00,,,0.00,WUHU216HW,2013-01-18 07:14:00,
2013-01-18 02:20:00,24.1,8.6,29.57,NNW,338,2.5,2.5,51,0.00,,,0.00,WUHU216HW,2013-01-18 07:20:00,
2013-01-18 02:25:00,24.1,8.2,29.59,NW,315,1.8,2.5,50,0.00,,,0.00,WUHU216HW,2013-01-18 07:25:00,
2013-01-18 02:30:00,23.9,7.6,29.60,NW,315,0.4,2.9,49,0.00,,,0.00,WUHU216HW,2013-01-18 07:30:00,
2013-01-18 02:35:00,23.9,7.6,29.59,North,0,3.6,3.6,49,0.00,,,0.00,WUHU216HW,2013-01-18 07:35:00,
2013-01-18 02:40:00,23.9,7.6,29.61,North,0,0.7,3.6,49,0.00,,,0.00,WUHU216HW,2013-01-18 07:40:00,
2013-01-18 02:45:00,23.9,8.0,29.62,NNW,338,0.4,4.0,50,0.00,,,0.00,WUHU216HW,2013-01-18 07:45:00,
2013-01-18 02:50:00,23.8,8.3,29.61,North,0,1.6,4.0,51,0.00,,,0.00,WUHU216HW,2013-01-18 07:50:00,
2013-01-18 02:55:00,23.8,7.4,29.60,NNE,23,3.8,4.7,49,0.00,,,0.00,WUHU216HW,2013-01-18 07:55:00,
2013-01-18 03:00:00,23.6,6.8,29.60,North,0,3.4,4.7,48,0.00,,,0.00,WUHU216HW,2013-01-18 08:00:00,
2013-01-18 03:05:00,23.4,6.0,29.61,NNE,23,6.3,6.3,47,0.00,,,0.00,WUHU216HW,2013-01-18 08:05:00,
2013-01-18 03:10:00,23.2,5.4,29.61,West,270,3.6,6.3,46,0.00,,,0.00,WUHU216HW,2013-01-18 08:10:00,
2013-01-18 03:15:00,22.9,5.6,29.61,NNW,338,4.0,4.3,47,0.00,,,0.00,WUHU216HW,2013-01-18 08:15:00,
2013-01-18 03:20:00,22.7,4.4,29.60,North,0,2.0,4.7,45,0.00,,,0.00,WUHU216HW,2013-01-18 08:20:00,
2013-01-18 03:25:00,22.7,4.0,29.59,NW,315,0.9,5.1,44,0.00,,,0.00,WUHU216HW,2013-01-18 08:25:00,
2013-01-18 03:30:00,22.5,3.3,29.59,West,270,2.2,6.9,43,0.00,,,0.00,WUHU216HW,2013-01-18 08:30:00,
2013-01-18 03:35:00,22.5,3.8,29.59,NNE,23,3.1,6.9,44,0.00,,,0.00,WUHU216HW,2013-01-18 08:35:00,
2013-01-18 03:41:00,22.3,3.6,29.58,NNE,23,4.0,4.0,44,0.00,,,0.00,WUHU216HW,2013-01-18 08:41:00,
2013-01-18 03:46:00,22.1,3.4,29.59,North,0,3.4,4.0,44,0.00,,,0.00,WUHU216HW,2013-01-18 08:46:00,
2013-01-18 03:51:00,22.0,2.8,29.60,North,0,5.6,5.6,43,0.00,,,0.00,WUHU216HW,2013-01-18 08:51:00,
2013-01-18 03:56:00,22.0,2.8,29.61,NNE,23,4.7,5.6,43,0.00,,,0.00,WUHU216HW,2013-01-18 08:56:00,
2013-01-18 04:01:00,22.0,3.2,29.61,North,0,3.8,5.1,44,0.00,,,0.00,WUHU216HW,2013-01-18 09:01:00,
2013-01-18 04:06:00,21.6,3.0,29.61,NNW,338,1.1,3.8,44,0.00,,,0.00,WUHU216HW,2013-01-18 09:06:00,
2013-01-18 04:11:00,21.4,2.8,29.60,ENE,68,0.9,3.4,44,0.00,,,0.00,WUHU216HW,2013-01-18 09:11:00,
2013-01-18 04:16:00,21.4,2.8,29.61,North,0,5.1,5.1,44,0.00,,,0.00,WUHU216HW,2013-01-18 09:16:00,
2013-01-18 04:21:00,21.2,3.1,29.62,North,0,2.9,5.1,45,0.00,,,0.00,WUHU216HW,2013-01-18 09:21:00,
2013-01-18 04:26:00,20.9,2.3,29.62,North,0,1.1,6.5,44,0.00,,,0.00,WUHU216HW,2013-01-18 09:26:00,
2013-01-18 04:31:00,20.7,2.6,29.62,NE,45,0.4,6.5,45,0.00,,,0.00,WUHU216HW,2013-01-18 09:31:00,
2013-01-18 04:36:00,20.5,2.4,29.62,NNE,23,2.2,2.5,45,0.00,,,0.00,WUHU216HW,2013-01-18 09:36:00,
2013-01-18 04:41:00,20.5,2.9,29.63,NNE,23,2.7,3.4,46,0.00,,,0.00,WUHU216HW,2013-01-18 09:41:00,
2013-01-18 04:46:00,20.3,2.7,29.63,NNW,338,2.0,4.7,46,0.00,,,0.00,WUHU216HW,2013-01-18 09:46:00,
2013-01-18 04:51:00,20.0,2.4,29.63,North,0,2.2,4.7,46,0.00,,,0.00,WUHU216HW,2013-01-18 09:51:00,
2013-01-18 04:56:00,19.8,2.7,29.63,North,0,3.1,3.4,47,0.00,,,0.00,WUHU216HW,2013-01-18 09:56:00,
2013-01-18 05:01:00,19.6,3.0,29.63,North,0,0.9,3.1,48,0.00,,,0.00,WUHU216HW,2013-01-18 10:01:00,
2013-01-18 05:06:00,19.4,2.9,29.64,NNW,338,2.7,2.7,48,0.00,,,0.00,WUHU216HW,2013-01-18 10:06:00,
2013-01-18 05:12:00,19.1,2.5,29.66,North,0,0.4,2.7,48,0.00,,,0.00,WUHU216HW,2013-01-18 10:12:00,
2013-01-18 05:17:00,18.9,2.8,29.66,NNE,23,0.0,2.0,49,0.00,,,0.00,WUHU216HW,2013-01-18 10:17:00,
2013-01-18 05:22:00,18.7,3.2,29.65,East,90,0.4,0.4,50,0.00,,,0.00,WUHU216HW,2013-01-18 10:22:00,
2013-01-18 05:27:00,18.4,3.3,29.66,NE,45,1.1,1.1,51,0.00,,,0.00,WUHU216HW,2013-01-18 10:27:00,
2013-01-18 05:32:00,18.0,3.2,29.66,North,0,0.9,1.8,52,0.00,,,0.00,WUHU216HW,2013-01-18 10:32:00,
2013-01-18 05:37:00,17.8,3.2,29.66,North,0,0.4,1.8,52,0.00,,,0.00,WUHU216HW,2013-01-18 10:37:00,
2013-01-18 05:42:00,17.6,3.3,29.66,North,0,0.4,3.4,53,0.00,,,0.00,WUHU216HW,2013-01-18 10:42:00,
2013-01-18 05:47:00,17.6,3.8,29.67,NNE,23,2.2,3.4,54,0.00,,,0.00,WUHU216HW,2013-01-18 10:47:00,
2013-01-18 05:52:00,17.5,3.6,29.67,NNW,338,0.4,2.7,54,0.00,,,0.00,WUHU216HW,2013-01-18 10:52:00,
2013-01-18 05:57:00,17.3,3.8,29.68,NNE,23,2.0,2.0,55,0.00,,,0.00,WUHU216HW,2013-01-18 10:57:00,
2013-01-18 06:02:00,17.1,3.6,29.68,WNW,293,2.2,2.5,55,0.00,,,0.00,WUHU216HW,2013-01-18 11:02:00,
2013-01-18 06:07:00,16.9,3.4,29.69,North,0,1.1,2.5,55,0.00,,,0.00,WUHU216HW,2013-01-18 11:07:00,
2013-01-18 06:12:00,16.7,2.9,29.69,North,0,1.8,2.0,54,0.00,,,0.00,WUHU216HW,2013-01-18 11:12:00,
2013-01-18 06:17:00,16.6,2.7,29.70,WNW,293,1.1,2.0,54,0.00,,,0.00,WUHU216HW,2013-01-18 11:17:00,
2013-01-18 06:22:00,16.6,3.2,29.70,NNW,338,0.4,1.8,55,0.00,,,0.00,WUHU216HW,2013-01-18 11:22:00,
2013-01-18 06:27:00,16.4,3.3,29.71,NW,315,1.3,1.8,56,0.00,,,0.00,WUHU216HW,2013-01-18 11:27:00,
2013-01-18 06:32:00,16.2,3.2,29.72,NW,315,0.4,2.9,56,0.00,,,0.00,WUHU216HW,2013-01-18 11:32:00,
2013-01-18 06:37:00,16.0,3.3,29.72,NW,315,1.1,2.9,57,0.00,,,0.00,WUHU216HW,2013-01-18 11:37:00,
2013-01-18 06:43:00,15.8,3.2,29.72,North,0,0.0,2.5,57,0.00,,,0.00,WUHU216HW,2013-01-18 11:43:00,
2013-01-18 06:48:00,15.5,3.3,29.72,NW,315,0.0,1.1,58,0.00,,,0.00,WUHU216HW,2013-01-18 11:48:00,
2013-01-18 06:53:00,15.3,3.1,29.72,WNW,293,0.9,0.9,58,0.00,,,0.00,WUHU216HW,2013-01-18 11:53:00,
2013-01-18 06:58:00,15.1,3.3,29.73,West,270,0.2,1.8,59,0.00,,,0.00,WUHU216HW,2013-01-18 11:58:00,
2013-01-18 07:03:00,14.9,2.7,29.73,West,270,0.4,1.8,58,0.00,,,0.00,WUHU216HW,2013-01-18 12:03:00,
2013-01-18 07:08:00,14.8,3.0,29.74,WNW,293,2.2,2.2,59,0.00,,,0.00,WUHU216HW,2013-01-18 12:08:00,
2013-01-18 07:13:00,14.6,3.2,29.74,West,270,2.0,2.2,60,0.00,,,0.00,WUHU216HW,2013-01-18 12:13:00,
2013-01-18 07:18:00,14.6,3.2,29.74,WNW,293,1.1,2.0,60,0.00,,,0.00,WUHU216HW,2013-01-18 12:18:00,
2013-01-18 07:23:00,14.6,3.2,29.75,West,270,1.8,2.0,60,0.00,,,0.00,WUHU216HW,2013-01-18 12:23:00,
2013-01-18 07:28:00,14.6,3.2,29.75,NW,315,0.4,2.5,60,0.00,,,0.00,WUHU216HW,2013-01-18 12:28:00,
2013-01-18 07:33:00,14.6,3.2,29.76,WNW,293,2.9,2.9,60,0.00,,,0.00,WUHU216HW,2013-01-18 12:33:00,
2013-01-18 07:38:00,14.6,3.2,29.76,WNW,293,0.4,3.4,60,0.00,,,0.00,WUHU216HW,2013-01-18 12:38:00,
2013-01-18 07:43:00,14.6,2.8,29.77,North,0,0.4,2.7,59,0.00,,,0.00,WUHU216HW,2013-01-18 12:43:00,
2013-01-18 07:48:00,14.4,2.6,29.77,NNE,23,0.4,3.8,59,0.00,,,0.00,WUHU216HW,2013-01-18 12:48:00,
2013-01-18 07:53:00,14.6,2.8,29.78,West,270,1.6,3.8,59,0.00,,,0.00,WUHU216HW,2013-01-18 12:53:00,
2013-01-18 07:58:00,14.6,2.4,29.78,North,0,0.2,4.0,58,0.00,,,0.00,WUHU216HW,2013-01-18 12:58:00,
2013-01-18 08:04:00,14.6,2.4,29.78,West,270,3.4,4.0,58,0.00,,,0.00,WUHU216HW,2013-01-18 13:04:00,
2013-01-18 08:09:00,14.6,2.4,29.78,NW,315,1.1,3.4,58,0.00,,,0.00,WUHU216HW,2013-01-18 13:09:00,
2013-01-18 08:14:00,14.8,2.6,29.79,NNW,338,2.5,3.1,58,0.00,,,0.00,WUHU216HW,2013-01-18 13:14:00,
2013-01-18 08:19:00,14.8,2.2,29.79,NW,315,3.4,4.0,57,0.00,,,0.00,WUHU216HW,2013-01-18 13:19:00,
2013-01-18 08:24:00,14.8,1.5,29.79,NNW,338,4.7,6.0,55,0.00,,,0.00,WUHU216HW,2013-01-18 13:24:00,
2013-01-18 08:29:00,14.8,1.5,29.80,West,270,0.9,6.0,55,0.00,,,0.00,WUHU216HW,2013-01-18 13:29:00,
2013-01-18 08:34:00,14.9,1.2,29.79,NNW,338,2.0,4.7,54,0.00,,,0.00,WUHU216HW,2013-01-18 13:34:00,
2013-01-18 08:39:00,15.1,0.6,29.80,WNW,293,5.4,5.4,52,0.00,,,0.00,WUHU216HW,2013-01-18 13:39:00,
2013-01-18 08:44:00,15.3,0.8,29.80,NNW,338,1.8,5.4,52,0.00,,,0.00,WUHU216HW,2013-01-18 13:44:00,
2013-01-18 08:49:00,15.5,0.5,29.81,NNE,23,3.1,3.4,51,0.00,,,0.00,WUHU216HW,2013-01-18 13:49:00,
2013-01-18 08:54:00,15.5,-0.3,29.81,NW,315,4.0,6.9,49,0.00,,,0.00,WUHU216HW,2013-01-18 13:54:00,
2013-01-18 08:59:00,15.7,0.7,29.81,NNE,23,4.7,6.9,51,0.00,,,0.00,WUHU216HW,2013-01-18 13:59:00,
2013-01-18 09:04:00,16.0,0.2,29.82,West,270,2.0,4.7,49,0.00,,,0.00,WUHU216HW,2013-01-18 14:04:00,
2013-01-18 09:09:00,16.2,-0.1,29.82,NNE,23,2.0,4.7,48,0.00,,,0.00,WUHU216HW,2013-01-18 14:09:00,
2013-01-18 09:14:00,16.6,0.7,29.82,WNW,293,2.5,4.0,49,0.00,,,0.00,WUHU216HW,2013-01-18 14:14:00,
2013-01-18 09:20:00,16.9,0.5,29.82,North,0,0.4,6.9,48,0.00,,,0.00,WUHU216HW,2013-01-18 14:20:00,
2013-01-18 09:25:00,16.9,-0.9,29.83,NW,315,4.9,6.9,45,0.00,,,0.00,WUHU216HW,2013-01-18 14:25:00,
2013-01-18 09:30:00,16.9,-0.9,29.83,West,270,2.7,5.6,45,0.00,,,0.00,WUHU216HW,2013-01-18 14:30:00,
2013-01-18 09:35:00,17.1,-0.7,29.83,WNW,293,4.7,4.9,45,0.00,,,0.00,WUHU216HW,2013-01-18 14:35:00,
2013-01-18 09:40:00,17.1,-0.7,29.83,WNW,293,3.6,5.4,45,0.00,,,0.00,WUHU216HW,2013-01-18 14:40:00,
2013-01-18 09:45:00,17.6,0.3,29.83,NNW,338,0.9,5.4,46,0.00,,,0.00,WUHU216HW,2013-01-18 14:45:00,
2013-01-18 09:50:00,18.2,0.3,29.83,NW,315,2.5,5.4,45,0.00,,,0.00,WUHU216HW,2013-01-18 14:50:00,
2013-01-18 09:55:00,18.7,0.8,29.83,NNE,23,1.8,2.9,45,0.00,,,0.00,WUHU216HW,2013-01-18 14:55:00,
2013-01-18 10:00:00,18.2,-1.1,29.83,NE,45,2.7,6.3,42,0.00,,,0.00,WUHU216HW,2013-01-18 15:00:00,
2013-01-18 10:05:00,18.4,0.0,29.83,North,0,6.3,6.3,44,0.00,,,0.00,WUHU216HW,2013-01-18 15:05:00,
2013-01-18 10:10:00,18.5,-0.3,29.83,SE,135,0.4,6.3,43,0.00,,,0.00,WUHU216HW,2013-01-18 15:10:00,
2013-01-18 10:15:00,19.1,-0.3,29.83,West,270,4.7,6.3,42,0.00,,,0.00,WUHU216HW,2013-01-18 15:15:00,
2013-01-18 10:20:00,19.3,0.4,29.83,WNW,293,0.2,6.3,43,0.00,,,0.00,WUHU216HW,2013-01-18 15:20:00,
2013-01-18 10:25:00,19.3,-0.6,29.83,NE,45,1.3,4.7,41,0.00,,,0.00,WUHU216HW,2013-01-18 15:25:00,
2013-01-18 10:30:00,19.4,0.0,29.83,NNW,338,0.7,4.9,42,0.00,,,0.00,WUHU216HW,2013-01-18 15:30:00,
2013-01-18 10:35:00,20.2,1.2,29.84,NE,45,4.7,4.9,43,0.00,,,0.00,WUHU216HW,2013-01-18 15:35:00,
2013-01-18 10:40:00,20.5,0.5,29.83,West,270,1.1,4.7,41,0.00,,,0.00,WUHU216HW,2013-01-18 15:40:00,
2013-01-18 10:45:00,20.5,0.5,29.84,WNW,293,1.3,4.5,41,0.00,,,0.00,WUHU216HW,2013-01-18 15:45:00,
2013-01-18 10:51:00,20.5,-0.5,29.84,West,270,4.7,8.1,39,0.00,,,0.00,WUHU216HW,2013-01-18 15:51:00,
2013-01-18 10:55:00,20.2,-0.3,29.84,WNW,293,4.7,9.8,40,0.00,,,0.00,WUHU216HW,2013-01-18 15:55:00,
2013-01-18 11:01:00,20.7,0.7,29.83,West,270,4.0,9.8,41,0.00,,,0.00,WUHU216HW,2013-01-18 16:01:00,
2013-01-18 11:06:00,20.7,-0.3,29.84,NW,315,6.3,8.5,39,0.00,,,0.00,WUHU216HW,2013-01-18 16:06:00,
2013-01-18 11:11:00,20.3,-1.3,29.83,NW,315,5.6,8.5,38,0.00,,,0.00,WUHU216HW,2013-01-18 16:11:00,
2013-01-18 11:16:00,20.7,-1.0,29.84,NW,315,4.7,7.6,38,0.00,,,0.00,WUHU216HW,2013-01-18 16:16:00,
2013-01-18 11:21:00,20.3,-0.7,29.84,NW,315,3.6,8.1,39,0.00,,,0.00,WUHU216HW,2013-01-18 16:21:00,
2013-01-18 11:26:00,20.5,0.5,29.84,NNE,23,4.0,8.1,41,0.00,,,0.00,WUHU216HW,2013-01-18 16:26:00,
2013-01-18 11:31:00,21.2,1.6,29.83,WNW,293,0.2,5.4,42,0.00,,,0.00,WUHU216HW,2013-01-18 16:31:00,
2013-01-18 11:36:00,21.6,-0.2,29.83,WNW,293,3.1,7.2,38,0.00,,,0.00,WUHU216HW,2013-01-18 16:36:00,
2013-01-18 11:41:00,21.2,0.1,29.83,WSW,248,4.3,7.2,39,0.00,,,0.00,WUHU216HW,2013-01-18 16:41:00,
2013-01-18 11:46:00,21.2,0.1,29.83,West,270,4.9,5.1,39,0.00,,,0.00,WUHU216HW,2013-01-18 16:46:00,
2013-01-18 11:51:00,21.2,0.1,29.83,North,0,6.3,6.3,39,0.00,,,0.00,WUHU216HW,2013-01-18 16:51:00,
2013-01-18 11:56:00,21.6,0.5,29.83,SW,225,6.3,6.3,39,0.00,,,0.00,WUHU216HW,2013-01-18 16:56:00,
2013-01-18 12:01:00,21.6,1.1,29.83,West,270,2.0,6.3,40,0.00,,,0.00,WUHU216HW,2013-01-18 17:01:00,
2013-01-18 12:06:00,22.7,0.8,29.82,NW,315,1.8,6.3,38,0.00,,,0.00,WUHU216HW,2013-01-18 17:06:00,
2013-01-18 12:11:00,22.3,0.5,29.82,WNW,293,2.5,2.9,38,0.00,,,0.00,WUHU216HW,2013-01-18 17:11:00,
2013-01-18 12:16:00,22.3,0.5,29.83,WNW,293,2.9,4.7,38,0.00,,,0.00,WUHU216HW,2013-01-18 17:16:00,
2013-01-18 12:21:00,22.5,0.6,29.82,NNE,23,3.4,4.7,38,0.00,,,0.00,WUHU216HW,2013-01-18 17:21:00,
2013-01-18 12:26:00,23.0,1.7,29.82,WSW,248,3.1,4.5,39,0.00,,,0.00,WUHU216HW,2013-01-18 17:26:00,
2013-01-18 12:31:00,23.2,1.9,29.82,WSW,248,3.4,4.0,39,0.00,,,0.00,WUHU216HW,2013-01-18 17:31:00,
2013-01-18 12:37:00,23.4,1.4,29.83,SE,135,2.5,3.4,38,0.00,,,0.00,WUHU216HW,2013-01-18 17:37:00,
2013-01-18 12:42:00,23.2,0.6,29.83,WNW,293,3.8,7.8,37,0.00,,,0.00,WUHU216HW,2013-01-18 17:42:00,
2013-01-18 12:47:00,22.5,-0.6,29.83,SSW,203,3.6,11.4,36,0.00,,,0.00,WUHU216HW,2013-01-18 17:47:00,
2013-01-18 12:52:00,22.0,0.2,29.83,NW,315,8.5,11.4,38,0.00,,,0.00,WUHU216HW,2013-01-18 17:52:00,
2013-01-18 12:57:00,22.0,-0.4,29.83,NW,315,4.9,9.2,37,0.00,,,0.00,WUHU216HW,2013-01-18 17:57:00,
2013-01-18 13:02:00,22.1,0.3,29.83,NNW,338,3.6,5.1,38,0.00,,,0.00,WUHU216HW,2013-01-18 18:02:00,
2013-01-18 13:07:00,22.1,-0.9,29.83,SW,225,2.2,7.6,36,0.00,,,0.00,WUHU216HW,2013-01-18 18:07:00,
2013-01-18 13:12:00,22.1,-0.3,29.83,NW,315,3.1,7.6,37,0.00,,,0.00,WUHU216HW,2013-01-18 18:12:00,
2013-01-18 13:17:00,22.3,0.5,29.83,NW,315,5.4,5.6,38,0.00,,,0.00,WUHU216HW,2013-01-18 18:17:00,
2013-01-18 13:22:00,22.5,0.0,29.83,WNW,293,0.4,5.4,37,0.00,,,0.00,WUHU216HW,2013-01-18 18:22:00,
2013-01-18 13:27:00,22.7,0.8,29.84,WNW,293,4.0,5.4,38,0.00,,,0.00,WUHU216HW,2013-01-18 18:27:00,
2013-01-18 13:32:00,22.9,0.4,29.84,WNW,293,2.0,6.5,37,0.00,,,0.00,WUHU216HW,2013-01-18 18:32:00,
2013-01-18 13:37:00,22.7,-0.4,29.84,NNW,338,8.5,8.5,36,0.00,,,0.00,WUHU216HW,2013-01-18 18:37:00,
2013-01-18 13:43:00,22.7,0.2,29.84,SW,225,0.2,8.5,37,0.00,,,0.00,WUHU216HW,2013-01-18 18:43:00,
2013-01-18 13:48:00,22.9,0.4,29.84,NW,315,2.2,3.4,37,0.00,,,0.00,WUHU216HW,2013-01-18 18:48:00,
2013-01-18 13:53:00,22.7,0.2,29.84,North,0,6.5,6.5,37,0.00,,,0.00,WUHU216HW,2013-01-18 18:53:00,
2013-01-18 13:58:00,22.7,0.8,29.84,WNW,293,1.8,6.5,38,0.00,,,0.00,WUHU216HW,2013-01-18 18:58:00,
2013-01-18 14:03:00,22.9,1.0,29.84,West,270,3.4,4.7,38,0.00,,,0.00,WUHU216HW,2013-01-18 19:03:00,
2013-01-18 14:08:00,22.9,-0.3,29.84,WNW,293,2.5,5.4,36,0.00,,,0.00,WUHU216HW,2013-01-18 19:08:00,
2013-01-18 14:13:00,22.9,0.4,29.84,West,270,4.0,5.4,37,0.00,,,0.00,WUHU216HW,2013-01-18 19:13:00,
2013-01-18 14:18:00,22.7,-1.1,29.85,NW,315,4.0,5.1,35,0.00,,,0.00,WUHU216HW,2013-01-18 19:18:00,
2013-01-18 14:23:00,22.7,0.2,29.85,NNW,338,2.9,6.0,37,0.00,,,0.00,WUHU216HW,2013-01-18 19:23:00,
2013-01-18 14:28:00,22.7,0.8,29.85,WSW,248,2.5,6.0,38,0.00,,,0.00,WUHU216HW,2013-01-18 19:28:00,
2013-01-18 14:33:00,22.7,0.8,29.86,WNW,293,4.9,6.5,38,0.00,,,0.00,WUHU216HW,2013-01-18 19:33:00,
2013-01-18 14:38:00,22.7,0.8,29.86,WNW,293,3.6,6.5,38,0.00,,,0.00,WUHU216HW,2013-01-18 19:38:00,
2013-01-18 14:44:00,22.7,0.8,29.86,WNW,293,4.3,6.5,38,0.00,,,0.00,WUHU216HW,2013-01-18 19:44:00,
2013-01-18 14:49:00,22.5,0.0,29.86,West,270,2.5,6.3,37,0.00,,,0.00,WUHU216HW,2013-01-18 19:49:00,
2013-01-18 14:54:00,22.5,0.6,29.86,NW,315,4.3,4.7,38,0.00,,,0.00,WUHU216HW,2013-01-18 19:54:00,
2013-01-18 14:59:00,22.1,0.3,29.86,WNW,293,6.9,6.9,38,0.00,,,0.00,WUHU216HW,2013-01-18 19:59:00,
2013-01-18 15:04:00,22.1,-0.3,29.86,West,270,4.0,6.9,37,0.00,,,0.00,WUHU216HW,2013-01-18 20:04:00,
2013-01-18 15:09:00,22.0,-0.4,29.86,West,270,3.4,4.0,37,0.00,,,0.00,WUHU216HW,2013-01-18 20:09:00,
2013-01-18 15:14:00,22.0,-0.4,29.86,North,0,4.3,6.9,37,0.00,,,0.00,WUHU216HW,2013-01-18 20:14:00,
2013-01-18 15:19:00,22.0,-0.4,29.87,NNE,23,2.7,5.4,37,0.00,,,0.00,WUHU216HW,2013-01-18 20:19:00,
2013-01-18 15:24:00,22.3,0.5,29.86,North,0,2.5,4.7,38,0.00,,,0.00,WUHU216HW,2013-01-18 20:24:00,
2013-01-18 15:29:00,22.5,0.0,29.86,South,180,2.0,5.4,37,0.00,,,0.00,WUHU216HW,2013-01-18 20:29:00,
2013-01-18 15:34:00,22.7,0.8,29.86,West,270,2.7,5.4,38,0.00,,,0.00,WUHU216HW,2013-01-18 20:34:00,
2013-01-18 15:39:00,22.3,0.5,29.86,WNW,293,1.1,4.5,38,0.00,,,0.00,WUHU216HW,2013-01-18 20:39:00,
2013-01-18 15:44:00,22.5,0.6,29.86,SSW,203,0.4,4.5,38,0.00,,,0.00,WUHU216HW,2013-01-18 20:44:00,
2013-01-18 15:49:00,22.7,1.5,29.86,SSE,158,0.0,2.5,39,0.00,,,0.00,WUHU216HW,2013-01-18 20:49:00,
2013-01-18 15:54:00,22.9,1.5,29.86,North,0,0.4,3.4,39,0.00,,,0.00,WUHU216HW,2013-01-18 20:54:00,
2013-01-18 16:00:00,22.7,0.8,29.86,NW,315,1.6,4.9,38,0.00,,,0.00,WUHU216HW,2013-01-18 21:00:00,
2013-01-18 16:05:00,21.8,0.6,29.86,WNW,293,0.0,4.9,39,0.00,,,0.00,WUHU216HW,2013-01-18 21:05:00,
2013-01-18 16:10:00,21.4,0.9,29.86,SW,225,1.1,2.0,40,0.00,,,0.00,WUHU216HW,2013-01-18 21:10:00,
2013-01-18 16:15:00,21.1,1.0,29.87,WNW,293,0.2,2.0,41,0.00,,,0.00,WUHU216HW,2013-01-18 21:15:00,
2013-01-18 16:20:00,20.5,1.0,29.87,SW,225,0.0,1.6,42,0.00,,,0.00,WUHU216HW,2013-01-18 21:20:00,
2013-01-18 16:25:00,20.2,0.7,29.87,SW,225,0.2,1.6,42,0.00,,,0.00,WUHU216HW,2013-01-18 21:25:00,
2013-01-18 16:30:00,20.0,1.0,29.87,WSW,248,2.9,2.9,43,0.00,,,0.00,WUHU216HW,2013-01-18 21:30:00,
2013-01-18 16:35:00,19.8,1.3,29.87,WSW,248,1.1,2.9,44,0.00,,,0.00,WUHU216HW,2013-01-18 21:35:00,
2013-01-18 16:40:00,19.6,0.6,29.88,West,270,1.3,2.9,43,0.00,,,0.00,WUHU216HW,2013-01-18 21:40:00,
2013-01-18 16:45:00,19.4,0.6,29.88,SW,225,2.5,3.6,43,0.00,,,0.00,WUHU216HW,2013-01-18 21:45:00,
2013-01-18 16:50:00,19.4,0.6,29.88,West,270,1.1,3.6,43,0.00,,,0.00,WUHU216HW,2013-01-18 21:50:00,
2013-01-18 16:55:00,19.3,0.4,29.88,West,270,0.7,3.4,43,0.00,,,0.00,WUHU216HW,2013-01-18 21:55:00,
2013-01-18 17:00:00,19.1,0.2,29.89,WSW,248,0.4,3.4,43,0.00,,,0.00,WUHU216HW,2013-01-18 22:00:00,
2013-01-18 17:05:00,18.9,0.5,29.89,WSW,248,0.4,2.2,44,0.00,,,0.00,WUHU216HW,2013-01-18 22:05:00,
2013-01-18 17:10:00,18.4,0.0,29.89,WSW,248,0.0,1.6,44,0.00,,,0.00,WUHU216HW,2013-01-18 22:10:00,
2013-01-18 17:15:00,18.2,0.3,29.89,WSW,248,0.2,0.2,45,0.00,,,0.00,WUHU216HW,2013-01-18 22:15:00,
2013-01-18 17:20:00,17.8,0.0,29.89,WSW,248,1.1,1.1,45,0.00,,,0.00,WUHU216HW,2013-01-18 22:20:00,
2013-01-18 17:25:00,17.6,0.3,29.89,West,270,0.2,1.3,46,0.00,,,0.00,WUHU216HW,2013-01-18 22:25:00,
2013-01-18 17:30:00,17.5,0.6,29.90,WSW,248,0.2,1.3,47,0.00,,,0.00,WUHU216HW,2013-01-18 22:30:00,
2013-01-18 17:35:00,17.1,0.3,29.90,SW,225,0.4,0.4,47,0.00,,,0.00,WUHU216HW,2013-01-18 22:35:00,
2013-01-18 17:40:00,16.9,0.5,29.90,WSW,248,0.0,0.4,48,0.00,,,0.00,WUHU216HW,2013-01-18 22:40:00,
2013-01-18 17:45:00,16.7,0.4,29.90,WSW,248,0.0,0.4,48,0.00,,,0.00,WUHU216HW,2013-01-18 22:45:00,
2013-01-18 17:50:00,16.4,0.5,29.91,WSW,248,0.0,0.0,49,0.00,,,0.00,WUHU216HW,2013-01-18 22:50:00,
2013-01-18 17:56:00,15.8,0.1,29.91,WSW,248,0.0,0.0,49,0.00,,,0.00,WUHU216HW,2013-01-18 22:56:00,
2013-01-18 18:01:00,15.5,0.5,29.91,WSW,248,0.0,0.0,51,0.00,,,0.00,WUHU216HW,2013-01-18 23:01:00,
2013-01-18 18:06:00,15.3,0.4,29.90,West,270,0.0,0.0,51,0.00,,,0.00,WUHU216HW,2013-01-18 23:06:00,
2013-01-18 18:11:00,14.9,0.0,29.90,West,270,0.0,0.0,51,0.00,,,0.00,WUHU216HW,2013-01-18 23:11:00,
2013-01-18 18:16:00,14.6,-0.4,29.90,West,270,0.0,0.0,51,0.00,,,0.00,WUHU216HW,2013-01-18 23:16:00,
2013-01-18 18:21:00,14.2,-0.3,29.91,West,270,0.0,0.0,52,0.00,,,0.00,WUHU216HW,2013-01-18 23:21:00,
2013-01-18 18:26:00,13.9,-0.3,29.91,WSW,248,0.4,0.4,53,0.00,,,0.00,WUHU216HW,2013-01-18 23:26:00,
2013-01-18 18:31:00,13.5,-0.2,29.92,WSW,248,0.0,0.4,54,0.00,,,0.00,WUHU216HW,2013-01-18 23:31:00,
2013-01-18 18:36:00,13.3,0.0,29.92,SW,225,0.4,0.4,55,0.00,,,0.00,WUHU216HW,2013-01-18 23:36:00,
2013-01-18 18:41:00,13.1,-0.2,29.92,SW,225,0.0,0.4,55,0.00,,,0.00,WUHU216HW,2013-01-18 23:41:00,
2013-01-18 18:46:00,12.8,-0.1,29.92,SSW,203,0.0,0.2,56,0.00,,,0.00,WUHU216HW,2013-01-18 23:46:00,
2013-01-18 18:51:00,12.6,-0.3,29.92,SSW,203,0.0,0.2,56,0.00,,,0.00,WUHU216HW,2013-01-18 23:51:00,
2013-01-18 18:56:00,12.4,-0.1,29.92,SSW,203,0.0,0.2,57,0.00,,,0.00,WUHU216HW,2013-01-18 23:56:00,
2013-01-18 19:02:00,12.2,0.2,29.92,SSW,203,0.0,0.2,58,0.00,,,0.00,WUHU216HW,2013-01-19 00:02:00,
2013-01-18 19:07:00,11.9,-0.2,29.91,SSW,203,0.0,0.0,58,0.00,,,0.00,WUHU216HW,2013-01-19 00:07:00,
2013-01-18 19:12:00,11.9,-0.2,29.92,SSW,203,0.4,0.4,58,0.00,,,0.00,WUHU216HW,2013-01-19 00:12:00,
2013-01-18 19:17:00,11.7,0.0,29.91,SSW,203,0.4,1.1,59,0.00,,,0.00,WUHU216HW,2013-01-19 00:17:00,
2013-01-18 19:22:00,11.5,0.3,29.92,SSW,203,0.0,1.1,60,0.00,,,0.00,WUHU216HW,2013-01-19 00:22:00,
2013-01-18 19:27:00,11.3,0.1,29.92,SSW,203,0.0,0.4,60,0.00,,,0.00,WUHU216HW,2013-01-19 00:27:00,
2013-01-18 19:32:00,11.2,-0.1,29.92,SSW,203,0.0,0.0,60,0.00,,,0.00,WUHU216HW,2013-01-19 00:32:00,
2013-01-18 19:37:00,11.2,-0.1,29.92,SSW,203,0.0,0.0,60,0.00,,,0.00,WUHU216HW,2013-01-19 00:37:00,
2013-01-18 19:42:00,10.8,-0.1,29.92,SW,225,0.0,0.0,61,0.00,,,0.00,WUHU216HW,2013-01-19 00:42:00,
2013-01-18 19:47:00,10.8,0.3,29.92,SW,225,0.0,0.0,62,0.00,,,0.00,WUHU216HW,2013-01-19 00:47:00,
2013-01-18 19:52:00,10.6,0.5,29.92,SSW,203,1.3,1.3,63,0.00,,,0.00,WUHU216HW,2013-01-19 00:52:00,
2013-01-18 19:57:00,11.0,0.7,29.92,SSW,203,0.2,1.3,63,0.00,,,0.00,WUHU216HW,2013-01-19 00:57:00,
2013-01-18 20:02:00,11.0,0.7,29.92,SSW,203,0.0,1.1,63,0.00,,,0.00,WUHU216HW,2013-01-19 01:02:00,
2013-01-18 20:07:00,11.0,1.1,29.92,WSW,248,0.0,0.4,64,0.00,,,0.00,WUHU216HW,2013-01-19 01:07:00,
2013-01-18 20:12:00,11.2,1.3,29.92,WSW,248,0.0,0.0,64,0.00,,,0.00,WUHU216HW,2013-01-19 01:12:00,
2013-01-18 20:17:00,11.2,1.3,29.93,WSW,248,0.0,0.0,64,0.00,,,0.00,WUHU216HW,2013-01-19 01:17:00,
2013-01-18 20:23:00,11.2,1.3,29.93,WSW,248,0.0,0.0,64,0.00,,,0.00,WUHU216HW,2013-01-19 01:23:00,
2013-01-18 20:28:00,11.2,1.3,29.93,WSW,248,0.0,0.0,64,0.00,,,0.00,WUHU216HW,2013-01-19 01:28:00,
2013-01-18 20:33:00,11.2,1.3,29.92,WSW,248,0.0,0.0,64,0.00,,,0.00,WUHU216HW,2013-01-19 01:33:00,
2013-01-18 20:38:00,10.6,0.7,29.92,WSW,248,0.0,0.0,64,0.00,,,0.00,WUHU216HW,2013-01-19 01:38:00,
2013-01-18 20:43:00,10.4,0.5,29.91,WSW,248,0.0,0.0,64,0.00,,,0.00,WUHU216HW,2013-01-19 01:43:00,
2013-01-18 20:48:00,10.4,0.5,29.92,WSW,248,0.0,0.0,64,0.00,,,0.00,WUHU216HW,2013-01-19 01:48:00,
2013-01-18 20:53:00,10.4,0.5,29.92,NW,315,0.0,0.0,64,0.00,,,0.00,WUHU216HW,2013-01-19 01:53:00,
2013-01-18 20:58:00,10.4,0.9,29.92,NW,315,0.0,0.0,65,0.00,,,0.00,WUHU216HW,2013-01-19 01:58:00,
2013-01-18 21:03:00,10.3,0.7,29.92,NW,315,0.0,0.0,65,0.00,,,0.00,WUHU216HW,2013-01-19 02:03:00,
2013-01-18 21:08:00,10.3,1.1,29.92,NW,315,0.0,0.0,66,0.00,,,0.00,WUHU216HW,2013-01-19 02:08:00,
2013-01-18 21:13:00,10.4,1.3,29.92,NW,315,0.0,0.0,66,0.00,,,0.00,WUHU216HW,2013-01-19 02:13:00,
2013-01-18 21:18:00,10.4,1.3,29.91,SSW,203,0.0,0.2,66,0.00,,,0.00,WUHU216HW,2013-01-19 02:18:00,
2013-01-18 21:23:00,10.3,1.1,29.92,SSW,203,0.0,0.2,66,0.00,,,0.00,WUHU216HW,2013-01-19 02:23:00,
2013-01-18 21:28:00,10.1,1.2,29.92,SSW,203,0.0,0.2,67,0.00,,,0.00,WUHU216HW,2013-01-19 02:28:00,
2013-01-18 21:33:00,9.9,1.1,29.92,SSW,203,0.0,0.0,67,0.00,,,0.00,WUHU216HW,2013-01-19 02:33:00,
2013-01-18 21:38:00,9.7,1.2,29.91,SSW,203,0.0,0.0,68,0.00,,,0.00,WUHU216HW,2013-01-19 02:38:00,
2013-01-18 21:43:00,9.7,1.2,29.91,SSW,203,0.0,0.0,68,0.00,,,0.00,WUHU216HW,2013-01-19 02:43:00,
2013-01-18 21:48:00,9.7,1.2,29.91,SSW,203,0.0,0.0,68,0.00,,,0.00,WUHU216HW,2013-01-19 02:48:00,
2013-01-18 21:54:00,9.7,1.5,29.91,NE,45,0.4,0.4,69,0.00,,,0.00,WUHU216HW,2013-01-19 02:54:00,
2013-01-18 21:59:00,10.1,2.2,29.91,ENE,68,0.0,0.4,70,0.00,,,0.00,WUHU216HW,2013-01-19 02:59:00,
2013-01-18 22:04:00,10.1,2.8,29.91,ENE,68,0.2,0.2,72,0.00,,,0.00,WUHU216HW,2013-01-19 03:04:00,
2013-01-18 22:09:00,10.6,3.0,29.90,ENE,68,0.0,0.2,71,0.00,,,0.00,WUHU216HW,2013-01-19 03:09:00,
2013-01-18 22:14:00,10.4,3.1,29.89,NE,45,0.2,1.1,72,0.00,,,0.00,WUHU216HW,2013-01-19 03:14:00,
2013-01-18 22:19:00,10.8,3.8,29.90,East,90,0.0,1.1,73,0.00,,,0.00,WUHU216HW,2013-01-19 03:19:00,
2013-01-18 22:24:00,10.8,3.4,29.91,North,0,0.4,0.4,72,0.00,,,0.00,WUHU216HW,2013-01-19 03:24:00,
2013-01-18 22:29:00,10.6,3.2,29.90,WSW,248,0.4,0.4,72,0.00,,,0.00,WUHU216HW,2013-01-19 03:29:00,
2013-01-18 22:34:00,10.8,3.2,29.89,NNE,23,0.0,0.4,71,0.00,,,0.00,WUHU216HW,2013-01-19 03:34:00,
2013-01-18 22:39:00,11.0,3.6,29.89,ENE,68,0.2,0.2,72,0.00,,,0.00,WUHU216HW,2013-01-19 03:39:00,
2013-01-18 22:44:00,11.2,4.2,29.89,South,180,0.2,0.2,73,0.00,,,0.00,WUHU216HW,2013-01-19 03:44:00,
2013-01-18 22:49:00,11.9,4.9,29.89,SW,225,0.4,2.9,73,0.00,,,0.00,WUHU216HW,2013-01-19 03:49:00,
2013-01-18 22:54:00,12.8,5.4,29.88,WSW,248,2.7,4.0,72,0.00,,,0.00,WUHU216HW,2013-01-19 03:54:00,
2013-01-18 23:00:00,14.0,6.4,29.88,SSW,203,4.7,4.7,71,0.00,,,0.00,WUHU216HW,2013-01-19 04:00:00,
2013-01-18 23:05:00,14.8,6.8,29.88,SE,135,3.4,4.7,70,0.00,,,0.00,WUHU216HW,2013-01-19 04:05:00,
2013-01-18 23:10:00,15.1,6.4,29.88,SSE,158,6.0,6.0,68,0.00,,,0.00,WUHU216HW,2013-01-19 04:10:00,
2013-01-18 23:15:00,15.5,7.1,29.88,SW,225,1.1,6.0,69,0.00,,,0.00,WUHU216HW,2013-01-19 04:15:00,
2013-01-18 23:20:00,15.7,7.2,29.88,SSE,158,1.1,4.0,69,0.00,,,0.00,WUHU216HW,2013-01-19 04:20:00,
2013-01-18 23:25:00,16.0,7.2,29.88,SW,225,1.8,4.0,68,0.00,,,0.00,WUHU216HW,2013-01-19 04:25:00,
2013-01-18 23:30:00,16.2,7.1,29.88,SSW,203,6.7,6.7,67,0.00,,,0.00,WUHU216HW,2013-01-19 04:30:00,
2013-01-18 23:35:00,16.6,7.5,29.87,South,180,2.7,6.7,67,0.00,,,0.00,WUHU216HW,2013-01-19 04:35:00,
2013-01-18 23:40:00,16.7,7.3,29.86,SW,225,1.8,4.3,66,0.00,,,0.00,WUHU216HW,2013-01-19 04:40:00,
2013-01-18 23:45:00,16.9,7.5,29.86,SSE,158,0.9,4.3,66,0.00,,,0.00,WUHU216HW,2013-01-19 04:45:00,
2013-01-18 23:50:00,16.9,7.5,29.86,SSW,203,1.1,3.4,66,0.00,,,0.00,WUHU216HW,2013-01-19 04:50:00,
2013-01-18 23:55:00,16.9,7.5,29.86,SSW,203,1.1,3.4,66,0.00,,,0.00,WUHU216HW,2013-01-19 04:55:00,